Time;durP1;ratioP1;P1;durP2;ratioP2;P2;SDS_P1;SDS_P2;PMS_P1;PMS_P2;Temp;Humidity;BMP_temperature;BMP_pressure;BME280_temperature;BME280_humidity;BME280_pressure;Samples;Min_cycle;Max_cycle;Signal;HPM_P1;HPM_P2
2021/09/27 00:02:05;;;;;;;17.48;14.23;;;16.10;99.90;;;;;;5053981;28;20040;-76
2021/09/27 00:04:31;;;;;;;15.80;13.98;;;16.10;99.90;;;;;;5053212;28;20021;-77
2021/09/27 00:06:56;;;;;;;15.75;14.00;;;16.10;99.90;;;;;;5053918;28;20037;-76
2021/09/27 00:09:22;;;;;;;16.30;13.88;;;16.10;99.90;;;;;;5053889;28;20032;-77
2021/09/27 00:11:48;;;;;;;20.13;14.68;;;16.10;99.90;;;;;;5052970;28;20384;-75
2021/09/27 00:14:14;;;;;;;23.40;14.73;;;16.10;99.90;;;;;;5053758;28;20075;-75
2021/09/27 00:16:40;;;;;;;18.58;14.35;;;16.10;99.90;;;;;;5052983;28;20083;-75
2021/09/27 00:19:06;;;;;;;18.65;14.38;;;16.00;99.90;;;;;;5053911;28;20021;-75
2021/09/27 00:21:34;;;;;;;18.25;14.02;;;16.00;99.90;;;;;;5053574;28;20028;-76
2021/09/27 00:24:00;;;;;;;18.38;14.02;;;16.00;99.90;;;;;;5052908;28;20056;-75
2021/09/27 00:26:28;;;;;;;19.08;15.23;;;15.90;99.90;;;;;;5053620;28;20031;-76
2021/09/27 00:28:53;;;;;;;16.70;14.05;;;15.90;99.90;;;;;;5053483;28;20040;-74
2021/09/27 00:31:19;;;;;;;24.00;14.15;;;15.90;99.90;;;;;;5052718;28;20028;-75
2021/09/27 00:33:46;;;;;;;22.33;14.82;;;15.90;99.90;;;;;;5053652;28;20033;-77
2021/09/27 00:36:11;;;;;;;19.08;14.45;;;15.90;99.90;;;;;;5054091;28;20086;-75
2021/09/27 00:38:38;;;;;;;17.02;14.05;;;15.90;99.90;;;;;;5053560;28;20496;-75
2021/09/27 00:41:07;;;;;;;19.40;14.10;;;15.80;99.90;;;;;;5053079;28;20477;-76
2021/09/27 00:43:35;;;;;;;17.60;13.27;;;15.90;99.90;;;;;;5053066;28;20035;-76
2021/09/27 00:46:04;;;;;;;16.58;14.13;;;15.80;99.90;;;;;;5052462;28;20025;-75
2021/09/27 00:48:30;;;;;;;17.23;13.88;;;15.80;99.90;;;;;;5053046;28;20049;-75
2021/09/27 00:50:59;;;;;;;18.88;14.75;;;15.80;99.90;;;;;;5053327;28;20100;-76
2021/09/27 00:53:26;;;;;;;17.00;13.68;;;15.80;99.90;;;;;;5052951;28;20025;-76
2021/09/27 00:55:54;;;;;;;19.15;15.10;;;15.80;99.90;;;;;;5053436;28;20095;-76
2021/09/27 00:58:21;;;;;;;17.45;14.90;;;15.70;99.90;;;;;;5053438;28;20021;-76
2021/09/27 01:00:47;;;;;;;17.35;14.90;;;15.70;99.90;;;;;;5052938;28;20032;-76
2021/09/27 01:03:13;;;;;;;23.52;15.40;;;15.70;99.90;;;;;;5052961;28;20040;-76
2021/09/27 01:05:45;;;;;;;17.02;14.48;;;15.70;99.90;;;;;;5053012;28;20021;-76
2021/09/27 01:08:31;;;;;;;21.67;15.60;;;15.70;99.90;;;;;;5052193;28;20082;-75
2021/09/27 01:11:25;;;;;;;16.70;15.00;;;15.60;99.90;;;;;;5052718;28;20021;-75
2021/09/27 01:14:24;;;;;;;18.63;16.08;;;15.70;99.90;;;;;;5052096;28;20430;-75
2021/09/27 01:17:03;;;;;;;21.73;15.60;;;15.60;99.90;;;;;;5052802;28;20100;-76
2021/09/27 01:19:47;;;;;;;19.50;15.07;;;15.50;99.90;;;;;;5052653;28;20070;-75
2021/09/27 01:22:34;;;;;;;22.20;16.77;;;15.60;99.90;;;;;;5052177;28;20029;-75
2021/09/27 01:25:36;;;;;;;20.02;15.02;;;15.50;99.90;;;;;;5052859;28;20104;-75
2021/09/27 01:28:39;;;;;;;16.15;14.45;;;15.50;99.90;;;;;;5052111;28;20033;-75
2021/09/27 01:31:25;;;;;;;18.52;16.13;;;15.50;99.90;;;;;;5052716;28;20040;-75
2021/09/27 01:34:12;;;;;;;21.50;15.63;;;15.50;99.90;;;;;;5052699;28;20147;-75
2021/09/27 01:36:53;;;;;;;20.48;16.05;;;15.50;99.90;;;;;;5052631;28;20469;-75
2021/09/27 01:39:29;;;;;;;20.33;15.52;;;15.40;99.90;;;;;;5052767;28;20075;-76
2021/09/27 01:42:33;;;;;;;19.17;15.48;;;15.40;99.90;;;;;;5051838;28;20040;-75
2021/09/27 01:45:22;;;;;;;20.48;16.80;;;15.40;99.90;;;;;;5047083;28;20032;-75
2021/09/27 01:48:27;;;;;;;25.05;18.23;;;15.30;99.90;;;;;;5052462;28;20557;-75
2021/09/27 01:51:14;;;;;;;27.02;18.42;;;15.40;99.90;;;;;;5052749;28;20033;-76
2021/09/27 01:53:45;;;;;;;20.27;17.27;;;15.30;99.90;;;;;;5052398;28;20473;-76
2021/09/27 01:56:18;;;;;;;23.25;16.92;;;15.30;99.90;;;;;;5055471;28;20039;-77
2021/09/27 01:59:21;;;;;;;20.73;16.38;;;15.30;99.90;;;;;;5056350;28;20397;-76
2021/09/27 02:02:11;;;;;;;20.27;16.90;;;15.20;99.90;;;;;;5056426;28;20040;-77
2021/09/27 02:05:11;;;;;;;17.70;15.17;;;15.20;99.90;;;;;;5056337;28;20021;-77
2021/09/27 02:07:50;;;;;;;23.60;17.58;;;15.10;99.90;;;;;;5056241;28;20356;-76
2021/09/27 02:10:21;;;;;;;24.70;17.80;;;15.10;99.90;;;;;;5055512;28;20025;-76
2021/09/27 02:13:11;;;;;;;24.88;17.23;;;15.10;99.90;;;;;;5056122;28;20098;-76
2021/09/27 02:15:52;;;;;;;24.37;17.93;;;15.10;99.90;;;;;;5055955;28;20029;-76
2021/09/27 02:18:38;;;;;;;25.45;17.77;;;15.10;99.90;;;;;;5055463;28;20040;-77
2021/09/27 02:21:29;;;;;;;22.88;16.50;;;15.10;99.90;;;;;;5055904;28;20500;-76
2021/09/27 02:24:17;;;;;;;26.95;17.90;;;15.10;99.90;;;;;;5055268;28;20029;-77
2021/09/27 02:26:45;;;;;;;19.90;17.20;;;15.10;99.90;;;;;;5055844;28;20540;-77
2021/09/27 02:29:11;;;;;;;28.83;18.92;;;15.20;99.90;;;;;;5055542;28;20036;-77
2021/09/27 02:32:07;;;;;;;22.73;17.90;;;15.20;99.90;;;;;;5055084;28;20021;-77
2021/09/27 02:34:46;;;;;;;24.48;17.98;;;15.20;99.90;;;;;;5056006;28;20027;-77
2021/09/27 02:37:26;;;;;;;21.83;17.73;;;15.30;99.90;;;;;;5055765;28;20116;-77
2021/09/27 02:40:09;;;;;;;24.23;19.13;;;15.30;99.90;;;;;;5055678;28;20029;-77
2021/09/27 02:42:40;;;;;;;24.30;18.55;;;15.40;99.90;;;;;;5055210;28;20060;-77
2021/09/27 02:45:07;;;;;;;25.08;17.38;;;15.50;99.90;;;;;;5054684;28;20061;-77
2021/09/27 02:47:39;;;;;;;21.98;17.65;;;15.50;99.90;;;;;;5055196;28;20042;-76
2021/09/27 02:50:07;;;;;;;23.48;17.88;;;15.60;99.90;;;;;;5055476;28;20025;-77
2021/09/27 02:52:33;;;;;;;22.45;18.63;;;15.60;99.90;;;;;;5054438;28;20087;-77
2021/09/27 02:55:05;;;;;;;26.38;17.58;;;15.70;99.90;;;;;;5055217;28;20021;-77
2021/09/27 02:57:45;;;;;;;25.25;18.75;;;15.80;99.90;;;;;;5055182;28;20125;-76
2021/09/27 03:00:13;;;;;;;25.10;18.02;;;15.80;99.90;;;;;;5054545;28;20033;-76
2021/09/27 03:03:12;;;;;;;25.98;18.88;;;15.80;99.90;;;;;;5055014;28;20492;-76
2021/09/27 03:06:02;;;;;;;24.73;19.25;;;15.80;99.90;;;;;;5053290;28;20040;-76
2021/09/27 03:08:45;;;;;;;22.45;18.40;;;15.70;99.90;;;;;;5055199;28;20040;-76
2021/09/27 03:12:01;;;;;;;21.52;17.38;;;15.60;99.90;;;;;;5055012;28;20417;-75
2021/09/27 03:14:43;;;;;;;25.00;19.30;;;15.60;99.90;;;;;;5031288;28;20044;-77
2021/09/27 03:17:40;;;;;;;24.75;18.67;;;15.50;99.90;;;;;;5054916;28;20377;-75
2021/09/27 03:20:40;;;;;;;28.42;18.55;;;15.50;99.90;;;;;;5053720;28;20025;-78
2021/09/27 03:23:18;;;;;;;26.80;17.88;;;15.40;99.90;;;;;;5055430;28;20021;-77
2021/09/27 03:26:05;;;;;;;28.85;19.50;;;15.30;99.90;;;;;;5055323;28;20040;-77
2021/09/27 03:28:49;;;;;;;31.55;20.92;;;15.30;99.90;;;;;;5053985;28;20040;-77
2021/09/27 03:31:40;;;;;;;26.10;19.00;;;15.20;99.90;;;;;;5054658;28;20113;-77
2021/09/27 03:34:05;;;;;;;25.90;20.88;;;15.20;99.90;;;;;;5053966;28;20029;-77
2021/09/27 03:36:55;;;;;;;27.50;20.70;;;15.20;99.90;;;;;;5054590;28;20028;-77
2021/09/27 03:39:36;;;;;;;30.48;20.77;;;15.10;99.90;;;;;;5054582;28;20457;-77
2021/09/27 03:42:11;;;;;;;25.63;19.83;;;15.10;99.90;;;;;;5053749;28;20088;-78
2021/09/27 03:45:06;;;;;;;30.13;20.70;;;15.10;99.90;;;;;;5054525;28;20025;-76
2021/09/27 03:47:44;;;;;;;27.77;20.23;;;15.10;99.90;;;;;;5054612;28;20037;-77
2021/09/27 03:50:16;;;;;;;26.73;19.40;;;15.10;99.90;;;;;;5055250;28;20029;-77
2021/09/27 03:52:49;;;;;;;35.58;22.33;;;15.00;99.90;;;;;;5059827;28;20025;-77
2021/09/27 03:55:18;;;;;;;32.00;22.05;;;15.00;99.90;;;;;;5059095;28;20020;-77
2021/09/27 03:57:53;;;;;;;32.35;22.45;;;15.00;99.90;;;;;;5055257;28;20025;-77
2021/09/27 04:00:36;;;;;;;42.13;24.23;;;15.00;99.90;;;;;;5056041;28;20380;-77
2021/09/27 04:03:28;;;;;;;34.72;22.55;;;14.90;99.90;;;;;;5053937;28;20033;-76
2021/09/27 04:06:02;;;;;;;39.30;22.63;;;14.90;99.90;;;;;;5055796;28;20033;-77
2021/09/27 04:09:03;;;;;;;31.13;21.60;;;14.90;99.90;;;;;;5063301;28;20056;-77
2021/09/27 04:12:01;;;;;;;32.55;21.02;;;14.90;99.90;;;;;;5048014;28;20037;-76
2021/09/27 04:14:45;;;;;;;37.00;23.00;;;14.80;99.90;;;;;;5052509;28;20516;-77
2021/09/27 04:17:18;;;;;;;34.85;22.48;;;14.80;99.90;;;;;;5052761;28;20029;-77
2021/09/27 04:19:53;;;;;;;36.05;22.20;;;14.80;99.90;;;;;;5053617;28;20469;-76
2021/09/27 04:22:27;;;;;;;33.90;21.92;;;14.80;99.90;;;;;;5053641;28;20036;-77
2021/09/27 04:25:47;;;;;;;38.30;24.30;;;14.80;99.90;;;;;;5052764;28;20025;-77
2021/09/27 04:28:34;;;;;;;32.13;22.85;;;14.80;99.90;;;;;;5036902;28;20049;-77
2021/09/27 04:31:32;;;;;;;31.90;22.92;;;14.80;99.90;;;;;;5052617;28;20025;-77
2021/09/27 04:34:26;;;;;;;34.60;22.08;;;14.80;99.90;;;;;;5046304;28;20041;-76
2021/09/27 04:36:56;;;;;;;34.33;21.88;;;14.70;99.90;;;;;;5052723;28;20159;-76
2021/09/27 04:39:26;;;;;;;29.35;22.42;;;14.80;99.90;;;;;;5053188;28;20029;-76
2021/09/27 04:42:05;;;;;;;34.45;23.60;;;14.70;99.90;;;;;;5053301;28;20055;-77
2021/09/27 04:44:53;;;;;;;36.38;23.35;;;14.70;99.90;;;;;;5052676;28;20119;-76
2021/09/27 04:47:49;;;;;;;31.63;21.80;;;14.70;99.90;;;;;;5053190;28;20028;-76
2021/09/27 04:50:45;;;;;;;34.42;21.50;;;14.60;99.90;;;;;;5053373;28;20036;-77
2021/09/27 04:53:28;;;;;;;33.92;22.33;;;14.60;99.90;;;;;;5052379;28;20083;-77
2021/09/27 04:56:27;;;;;;;35.97;21.55;;;14.60;99.90;;;;;;5052916;28;20527;-76
2021/09/27 04:59:06;;;;;;;36.17;22.20;;;14.60;99.90;;;;;;5052360;28;20381;-77
2021/09/27 05:01:36;;;;;;;32.78;21.83;;;14.50;99.90;;;;;;5053010;28;20047;-77
2021/09/27 05:04:17;;;;;;;29.80;20.48;;;14.50;99.90;;;;;;5052967;28;20032;-77
2021/09/27 05:07:04;;;;;;;;;;;14.50;99.90;;;;;;5052806;28;20028;-77
2021/09/27 05:09:33;;;;;;;31.35;21.20;;;14.50;99.90;;;;;;5053045;28;19952;-77
2021/09/27 05:12:36;;;;;;;32.35;21.33;;;14.50;99.90;;;;;;5052792;28;20021;-77
2021/09/27 05:15:20;;;;;;;29.90;20.05;;;14.50;99.90;;;;;;5052901;28;20030;-74
2021/09/27 05:18:10;;;;;;;33.45;20.00;;;14.40;99.90;;;;;;5052655;28;20473;-77
2021/09/27 05:21:07;;;;;;;34.83;21.67;;;14.40;99.90;;;;;;5052053;28;20055;-77
2021/09/27 05:24:07;;;;;;;31.35;22.48;;;14.50;99.90;;;;;;5052591;28;20480;-76
2021/09/27 05:26:44;;;;;;;30.80;21.43;;;14.40;99.90;;;;;;5051944;28;20036;-77
2021/09/27 05:29:16;;;;;;;35.25;21.30;;;14.40;99.90;;;;;;5053064;28;20036;-77
2021/09/27 05:32:13;;;;;;;32.75;21.67;;;14.40;99.90;;;;;;5056608;28;20457;-77
2021/09/27 05:34:51;;;;;;;30.63;20.90;;;14.50;99.90;;;;;;5056144;28;20029;-77
2021/09/27 05:37:28;;;;;;;30.75;21.25;;;14.40;99.90;;;;;;5056996;28;20027;-76
2021/09/27 05:40:10;;;;;;;32.92;20.73;;;14.50;99.90;;;;;;5056967;28;20025;-76
2021/09/27 05:43:01;;;;;;;31.67;20.38;;;14.50;99.90;;;;;;5057308;28;20056;-76
2021/09/27 05:45:40;;;;;;;34.10;22.15;;;14.50;99.90;;;;;;5058393;28;20604;-76
2021/09/27 05:48:17;;;;;;;37.88;22.90;;;14.50;99.90;;;;;;5055841;28;20124;-77
2021/09/27 05:51:01;;;;;;;30.20;18.88;;;14.50;99.90;;;;;;5056687;28;20035;-75
2021/09/27 05:53:48;;;;;;;31.13;20.88;;;14.60;99.90;;;;;;5056575;28;20110;-75
2021/09/27 05:56:31;;;;;;;51.85;19.92;;;14.60;99.90;;;;;;5055765;28;20071;-77
2021/09/27 05:59:19;;;;;;;37.65;20.42;;;14.70;99.90;;;;;;5056517;28;20025;-77
2021/09/27 06:01:59;;;;;;;33.75;17.33;;;14.80;99.90;;;;;;5055708;28;20086;-77
2021/09/27 06:05:09;;;;;;;40.83;20.92;;;14.80;99.90;;;;;;5056282;28;20025;-76
2021/09/27 06:07:53;;;;;;;29.02;18.95;;;14.90;99.90;;;;;;5036584;28;20380;-77
2021/09/27 06:10:39;;;;;;;34.50;20.90;;;15.00;99.90;;;;;;5055627;28;20029;-77
2021/09/27 06:13:22;;;;;;;29.00;19.63;;;15.00;99.90;;;;;;5048547;28;20040;-77
2021/09/27 06:15:52;;;;;;;30.02;19.95;;;15.20;99.90;;;;;;5055202;28;20032;-77
2021/09/27 06:18:35;;;;;;;24.13;18.33;;;15.20;99.90;;;;;;5055954;28;20037;-77
2021/09/27 06:21:07;;;;;;;25.83;17.63;;;15.30;99.90;;;;;;5055903;28;20072;-77
2021/09/27 06:24:18;;;;;;;33.30;20.63;;;15.40;99.90;;;;;;5055028;28;20104;-76
2021/09/27 06:26:55;;;;;;;23.08;18.45;;;15.50;99.90;;;;;;5055946;28;20071;-76
2021/09/27 06:30:01;;;;;;;25.60;17.98;;;15.70;99.90;;;;;;5055680;28;20040;-77
2021/09/27 06:32:36;;;;;;;24.77;17.73;;;15.80;99.90;;;;;;5055791;28;20096;-77
2021/09/27 06:35:07;;;;;;;24.70;17.65;;;15.90;99.90;;;;;;5055925;28;20056;-77
2021/09/27 06:37:34;;;;;;;23.08;17.77;;;15.90;99.90;;;;;;5054947;28;20036;-78
2021/09/27 06:40:05;;;;;;;22.30;17.23;;;16.00;99.90;;;;;;5055202;28;20017;-76
2021/09/27 06:42:31;;;;;;;23.00;17.95;;;16.00;99.90;;;;;;5055246;28;20052;-77
2021/09/27 06:44:59;;;;;;;20.10;17.02;;;16.00;99.90;;;;;;5054799;28;20025;-77
2021/09/27 06:47:26;;;;;;;25.60;17.25;;;16.10;99.90;;;;;;5055376;28;20025;-76
2021/09/27 06:49:54;;;;;;;19.40;16.58;;;16.10;99.90;;;;;;5055337;28;20036;-78
2021/09/27 06:52:23;;;;;;;21.88;17.23;;;16.10;99.90;;;;;;5054629;28;20027;-76
2021/09/27 06:54:49;;;;;;;22.83;16.38;;;16.10;99.90;;;;;;5055110;28;20071;-77
2021/09/27 06:57:14;;;;;;;21.48;16.23;;;16.20;99.90;;;;;;5055402;28;20068;-77
2021/09/27 06:59:40;;;;;;;21.58;16.63;;;16.20;99.90;;;;;;5054745;28;20025;-77
2021/09/27 07:02:06;;;;;;;17.77;15.25;;;16.20;99.90;;;;;;5055464;28;20471;-77
2021/09/27 07:04:32;;;;;;;21.75;16.13;;;16.30;99.90;;;;;;5055812;28;20037;-77
2021/09/27 07:06:57;;;;;;;27.60;17.23;;;16.30;99.90;;;;;;5056915;28;20025;-77
2021/09/27 07:09:23;;;;;;;22.45;16.40;;;16.30;99.90;;;;;;5057957;28;20057;-78
2021/09/27 07:11:48;;;;;;;24.15;16.33;;;16.40;99.90;;;;;;5054687;28;20354;-77
2021/09/27 07:14:14;;;;;;;19.30;16.10;;;16.40;99.90;;;;;;5055024;28;20040;-77
2021/09/27 07:16:41;;;;;;;19.60;16.30;;;16.50;99.90;;;;;;5054995;28;20021;-77
2021/09/27 07:19:08;;;;;;;23.00;17.33;;;16.60;99.90;;;;;;5055181;28;20032;-76
2021/09/27 07:21:35;;;;;;;26.25;16.85;;;16.60;99.90;;;;;;5055713;28;20025;-77
2021/09/27 07:24:01;;;;;;;21.35;16.70;;;16.70;99.90;;;;;;5055239;28;20029;-76
2021/09/27 07:26:27;;;;;;;20.40;16.65;;;16.70;99.90;;;;;;5054327;28;20088;-77
2021/09/27 07:28:56;;;;;;;25.15;17.33;;;16.80;99.90;;;;;;5054840;28;20033;-77
2021/09/27 07:31:22;;;;;;;19.38;16.70;;;16.80;99.90;;;;;;5054674;28;20524;-76
2021/09/27 07:33:48;;;;;;;22.75;16.92;;;16.90;99.90;;;;;;5053807;28;20496;-76
2021/09/27 07:36:13;;;;;;;22.00;16.10;;;16.90;99.90;;;;;;5054373;28;20025;-75
2021/09/27 07:38:39;;;;;;;16.90;15.07;;;16.90;99.90;;;;;;5054738;28;20112;-76
2021/09/27 07:41:05;;;;;;;25.17;18.80;;;17.00;99.90;;;;;;5053663;28;20067;-76
2021/09/27 07:43:31;;;;;;;19.85;16.50;;;17.10;99.90;;;;;;5054440;28;20040;-76
2021/09/27 07:45:56;;;;;;;20.60;17.23;;;17.10;99.90;;;;;;5054254;28;20029;-76
2021/09/27 07:48:22;;;;;;;21.23;16.00;;;17.20;99.90;;;;;;5053361;28;20043;-76
2021/09/27 07:50:51;;;;;;;21.63;16.45;;;17.20;99.90;;;;;;5054252;28;20040;-76
2021/09/27 07:53:17;;;;;;;18.80;16.80;;;17.20;99.90;;;;;;5053670;28;20389;-77
2021/09/27 07:55:43;;;;;;;18.52;14.73;;;17.20;99.90;;;;;;5053613;28;20032;-77
2021/09/27 07:58:09;;;;;;;19.88;16.08;;;17.30;99.90;;;;;;5054246;28;20057;-76
2021/09/27 08:00:35;;;;;;;20.58;15.45;;;17.30;99.90;;;;;;5053962;28;20102;-77
2021/09/27 08:03:01;;;;;;;18.95;15.50;;;17.40;99.90;;;;;;5053412;28;20075;-78
2021/09/27 08:05:30;;;;;;;20.35;15.95;;;17.40;99.90;;;;;;5054027;28;20431;-76
2021/09/27 08:07:57;;;;;;;18.50;15.40;;;17.50;99.90;;;;;;5053777;28;20037;-76
2021/09/27 08:10:25;;;;;;;16.55;14.85;;;17.60;99.90;;;;;;5054974;28;20021;-78
2021/09/27 08:12:50;;;;;;;19.42;15.70;;;17.60;99.90;;;;;;5054624;28;20111;-77
2021/09/27 08:15:20;;;;;;;19.05;15.45;;;17.60;99.90;;;;;;5053368;28;20120;-77
2021/09/27 08:17:49;;;;;;;17.67;15.75;;;17.60;99.90;;;;;;5053871;28;20388;-77
2021/09/27 08:20:19;;;;;;;22.15;15.25;;;17.60;99.90;;;;;;5053580;28;20025;-75
2021/09/27 08:22:45;;;;;;;18.95;15.95;;;17.60;99.90;;;;;;5053301;28;20028;-76
2021/09/27 08:25:11;;;;;;;17.60;15.68;;;17.70;99.90;;;;;;5053780;28;20037;-77
2021/09/27 08:27:37;;;;;;;20.42;16.05;;;17.60;99.90;;;;;;5053802;28;20115;-76
2021/09/27 08:30:07;;;;;;;22.35;15.77;;;17.70;99.90;;;;;;5052873;28;20048;-77
2021/09/27 08:32:32;;;;;;;20.30;16.05;;;17.70;99.90;;;;;;5053271;28;20039;-77
2021/09/27 08:34:58;;;;;;;17.08;15.27;;;17.80;99.90;;;;;;5053762;28;20376;-75
2021/09/27 08:37:24;;;;;;;18.27;15.00;;;17.80;99.90;;;;;;5052731;28;20029;-76
2021/09/27 08:39:49;;;;;;;23.10;14.85;;;17.90;99.90;;;;;;5052061;28;20060;-76
2021/09/27 08:42:33;;;;;;;19.63;16.08;;;18.00;99.90;;;;;;5053188;28;20496;-77
2021/09/27 08:45:15;;;;;;;19.75;15.05;;;18.10;99.90;;;;;;5052627;28;20025;-76
2021/09/27 08:48:18;;;;;;;17.38;15.02;;;18.30;99.90;;;;;;5053180;28;20025;-75
2021/09/27 08:50:44;;;;;;;15.93;14.25;;;18.30;99.90;;;;;;5052755;28;20021;-77
2021/09/27 08:53:31;;;;;;;20.67;15.02;;;18.50;99.90;;;;;;5053131;28;20052;-77
2021/09/27 08:56:35;;;;;;;19.42;14.13;;;18.70;99.90;;;;;;5053108;28;20508;-76
2021/09/27 08:59:29;;;;;;;17.88;14.27;;;18.80;99.90;;;;;;5052368;28;20082;-77
2021/09/27 09:02:10;;;;;;;16.52;13.88;;;18.90;99.90;;;;;;5052925;28;20056;-76
2021/09/27 09:04:48;;;;;;;16.90;13.82;;;19.00;99.90;;;;;;5052511;28;20024;-76
2021/09/27 09:07:18;;;;;;;13.82;12.30;;;19.10;99.90;;;;;;5053060;28;20021;-76
2021/09/27 09:09:48;;;;;;;12.85;11.55;;;19.10;99.90;;;;;;5053023;28;20029;-76
2021/09/27 09:12:30;;;;;;;15.75;11.70;;;19.20;99.90;;;;;;5052162;28;20025;-75
2021/09/27 09:15:04;;;;;;;12.85;11.50;;;19.20;99.90;;;;;;5053116;28;20033;-75
2021/09/27 09:17:46;;;;;;;11.77;10.30;;;19.10;99.90;;;;;;5052832;28;20147;-75
2021/09/27 09:20:15;;;;;;;11.20;10.05;;;19.10;99.90;;;;;;5052251;28;20400;-76
2021/09/27 09:22:43;;;;;;;15.00;10.98;;;19.10;99.90;;;;;;5052808;28;20021;-76
2021/09/27 09:25:32;;;;;;;15.07;9.35;;;19.10;99.90;;;;;;5052901;28;20097;-75
2021/09/27 09:27:59;;;;;;;11.00;8.85;;;19.00;99.90;;;;;;5052691;28;20048;-76
2021/09/27 09:30:51;;;;;;;13.65;9.48;;;19.00;99.90;;;;;;5052719;28;20024;-76
2021/09/27 09:33:44;;;;;;;10.18;9.27;;;19.00;99.90;;;;;;5052002;28;20061;-76
2021/09/27 09:36:14;;;;;;;10.63;8.88;;;19.00;99.90;;;;;;5052860;28;20032;-76
2021/09/27 09:38:42;;;;;;;9.73;8.73;;;19.00;99.90;;;;;;5052671;28;20017;-76
2021/09/27 09:41:08;;;;;;;26.15;8.23;;;19.00;99.90;;;;;;5051669;28;20032;-76
2021/09/27 09:43:36;;;;;;;9.02;7.93;;;19.00;99.90;;;;;;5052511;28;20048;-76
2021/09/27 09:46:29;;;;;;;8.38;7.53;;;19.10;99.90;;;;;;5052755;28;20025;-76
2021/09/27 09:49:03;;;;;;;8.73;7.28;;;19.20;99.90;;;;;;5052586;28;20040;-75
2021/09/27 09:51:49;;;;;;;12.40;9.10;;;19.30;99.90;;;;;;5052637;28;20024;-76
2021/09/27 09:54:27;;;;;;;8.00;7.30;;;19.40;99.90;;;;;;5051844;28;20408;-76
2021/09/27 09:57:06;;;;;;;9.18;7.55;;;19.50;99.90;;;;;;5052609;28;20037;-75
2021/09/27 09:59:38;;;;;;;10.30;6.82;;;19.60;99.90;;;;;;5052399;28;20037;-75
2021/09/27 10:02:08;;;;;;;11.23;8.13;;;19.80;99.90;;;;;;5051476;28;20415;-76
2021/09/27 10:04:41;;;;;;;8.02;7.43;;;19.90;99.90;;;;;;5052343;28;20033;-77
2021/09/27 10:07:17;;;;;;;7.55;6.75;;;20.00;99.90;;;;;;5052564;28;20025;-77
2021/09/27 10:09:56;;;;;;;8.77;6.97;;;20.10;99.90;;;;;;5051842;28;20041;-76
2021/09/27 10:12:43;;;;;;;10.38;6.93;;;20.10;99.90;;;;;;5052457;28;20035;-76
2021/09/27 10:15:16;;;;;;;13.90;7.03;;;20.10;99.90;;;;;;5052327;28;20017;-77
2021/09/27 10:17:42;;;;;;;7.05;6.38;;;20.20;99.90;;;;;;5063217;28;20025;-76
2021/09/27 10:20:17;;;;;;;6.80;6.05;;;20.20;99.90;;;;;;5058283;28;20481;-77
2021/09/27 10:22:58;;;;;;;9.95;6.20;;;20.20;99.90;;;;;;5060934;28;20021;-76
2021/09/27 10:25:26;;;;;;;;;;;20.20;99.90;;;;;;5061280;28;20029;-74
2021/09/27 10:27:52;;;;;;;6.13;5.30;;;20.20;99.90;;;;;;5056842;28;19912;-75
2021/09/27 10:30:23;;;;;;;10.45;5.47;;;20.10;99.90;;;;;;5056812;28;20044;-77
2021/09/27 10:32:53;;;;;;;7.18;5.82;;;20.10;99.90;;;;;;5059234;28;20037;-76
2021/09/27 10:35:30;;;;;;;9.10;6.07;;;20.00;99.90;;;;;;5061891;28;20086;-76
2021/09/27 10:38:07;;;;;;;13.52;5.90;;;20.00;99.90;;;;;;5058512;28;20075;-76
2021/09/27 10:40:34;;;;;;;10.82;6.93;;;20.00;99.90;;;;;;5060105;28;20032;-76
2021/09/27 10:43:01;;;;;;;6.32;5.70;;;20.00;99.90;;;;;;5054962;28;20079;-76
2021/09/27 10:45:29;;;;;;;5.95;5.03;;;20.00;99.90;;;;;;5055517;28;20025;-75
2021/09/27 10:47:58;;;;;;;8.25;5.15;;;20.00;99.90;;;;;;5055287;28;20570;-76
2021/09/27 10:50:34;;;;;;;6.70;4.70;;;20.00;99.90;;;;;;5054830;28;20036;-76
2021/09/27 10:53:13;;;;;;;7.95;5.32;;;20.10;99.90;;;;;;5055709;28;20377;-75
2021/09/27 10:56:06;;;;;;;6.15;5.05;;;20.10;99.90;;;;;;5055441;28;20032;-75
2021/09/27 10:58:42;;;;;;;5.55;4.45;;;20.20;99.90;;;;;;5054420;28;20017;-78
2021/09/27 11:01:10;;;;;;;9.73;4.68;;;20.30;99.90;;;;;;5055313;28;20397;-78
2021/09/27 11:03:53;;;;;;;7.60;4.65;;;20.30;99.90;;;;;;5057113;28;20025;-76
2021/09/27 11:06:41;;;;;;;5.40;4.90;;;20.30;99.90;;;;;;5055343;28;20121;-76
2021/09/27 11:09:18;;;;;;;6.55;4.55;;;20.30;99.90;;;;;;5054968;28;20561;-76
2021/09/27 11:12:20;;;;;;;7.68;3.97;;;20.40;99.90;;;;;;5054632;28;20105;-77
2021/09/27 11:14:51;;;;;;;11.88;4.13;;;20.40;99.90;;;;;;5052673;28;20045;-77
2021/09/27 11:17:29;;;;;;;4.60;3.95;;;20.50;99.90;;;;;;5055988;28;20029;-77
2021/09/27 11:20:39;;;;;;;9.38;5.40;;;20.50;99.90;;;;;;5054130;28;20126;-76
2021/09/27 11:23:31;;;;;;;4.30;3.80;;;20.70;99.90;;;;;;5054691;28;20027;-76
2021/09/27 11:26:15;;;;;;;6.78;3.53;;;20.70;99.90;;;;;;5054125;28;20083;-77
2021/09/27 11:28:51;;;;;;;4.18;3.78;;;20.80;99.90;;;;;;5053804;28;20115;-76
2021/09/27 11:31:26;;;;;;;4.72;3.50;;;20.90;99.90;;;;;;5054678;28;20511;-77
2021/09/27 11:34:19;;;;;;;3.97;3.45;;;21.00;99.90;;;;;;5053736;28;20542;-77
2021/09/27 11:36:48;;;;;;;4.97;3.30;;;21.10;99.90;;;;;;5054368;28;20032;-77
2021/09/27 11:39:15;;;;;;;7.38;3.05;;;21.20;99.90;;;;;;5053688;28;20025;-77
2021/09/27 11:42:09;;;;;;;3.60;3.30;;;21.30;99.90;;;;;;5054203;28;20077;-76
2021/09/27 11:44:49;;;;;;;4.95;3.08;;;21.40;99.90;;;;;;5054598;28;20021;-77
2021/09/27 11:47:44;;;;;;;6.03;3.35;;;21.50;99.90;;;;;;5053763;28;20370;-77
2021/09/27 11:50:45;;;;;;;3.28;2.97;;;21.60;99.90;;;;;;5054349;28;20029;-77
2021/09/27 11:53:26;;;;;;;4.78;3.30;;;21.60;99.90;;;;;;5053517;28;20465;-77
2021/09/27 11:56:25;;;;;;;4.85;3.20;;;21.60;99.90;;;;;;5054235;28;20464;-75
2021/09/27 11:59:03;;;;;;;4.43;3.00;;;21.50;99.90;;;;;;5053976;28;20110;-75
2021/09/27 12:02:13;;;;;;;4.22;3.72;;;21.50;99.90;;;;;;5053600;28;20029;-76
2021/09/27 12:05:11;;;;;;;3.58;3.28;;;20.70;99.90;;;;;;5053986;28;20100;-76
2021/09/27 12:07:43;;;;;;;3.53;2.90;;;21.30;99.90;;;;;;4998917;28;20035;-75
2021/09/27 12:10:41;;;;;;;4.63;3.10;;;21.20;99.90;;;;;;5053874;28;20473;-76
2021/09/27 12:13:17;;;;;;;7.28;2.95;;;21.00;99.90;;;;;;5053280;28;20125;-76
2021/09/27 12:15:46;;;;;;;3.45;3.08;;;20.90;99.90;;;;;;5053140;28;20840;-76
2021/09/27 12:18:34;;;;;;;5.35;2.72;;;20.80;99.90;;;;;;5053622;28;20021;-76
2021/09/27 12:21:04;;;;;;;5.32;3.40;;;20.70;99.90;;;;;;5053651;28;20036;-76
2021/09/27 12:23:35;;;;;;;6.05;3.60;;;20.60;99.90;;;;;;5053784;28;20037;-78
2021/09/27 12:26:00;;;;;;;6.03;3.03;;;20.50;99.90;;;;;;5053546;28;20029;-77
2021/09/27 12:28:30;;;;;;;3.28;2.97;;;20.40;99.90;;;;;;5053070;28;20079;-78
2021/09/27 12:30:58;;;;;;;;;;;20.40;99.90;;;;;;5054582;28;20025;-76
2021/09/27 12:33:27;;;;;;;4.18;3.17;;;20.40;99.90;;;;;;5054089;28;19905;-77
2021/09/27 12:36:19;;;;;;;5.13;3.78;;;20.50;99.90;;;;;;5053591;28;20105;-77
2021/09/27 12:38:47;;;;;;;5.22;3.40;;;20.50;99.90;;;;;;5053744;28;20488;-78
2021/09/27 12:41:13;;;;;;;3.90;3.60;;;20.50;99.90;;;;;;5053285;28;20036;-76
2021/09/27 12:43:40;;;;;;;4.00;3.55;;;20.50;99.90;;;;;;5052680;28;20440;-76
2021/09/27 12:46:27;;;;;;;4.55;3.30;;;20.60;99.90;;;;;;5053453;28;20059;-76
2021/09/27 12:48:58;;;;;;;3.45;3.15;;;20.60;99.90;;;;;;5053223;28;20041;-76
2021/09/27 12:51:31;;;;;;;4.25;3.85;;;20.50;99.90;;;;;;5052619;28;20047;-76
2021/09/27 12:54:16;;;;;;;4.38;3.90;;;20.50;99.90;;;;;;5053389;28;20025;-78
2021/09/27 12:56:42;;;;;;;5.47;3.70;;;20.30;99.90;;;;;;5052816;28;20021;-77
2021/09/27 12:59:17;;;;;;;8.27;4.60;;;20.20;99.90;;;;;;5053942;28;20036;-77
2021/09/27 13:01:48;;;;;;;12.60;4.90;;;20.00;99.90;;;;;;5053485;28;20028;-77
2021/09/27 13:04:32;;;;;;;4.28;3.90;;;19.80;99.90;;;;;;5052346;28;20495;-77
2021/09/27 13:07:07;;;;;;;6.07;4.65;;;19.70;99.90;;;;;;5053188;28;20028;-77
2021/09/27 13:09:37;;;;;;;5.78;4.38;;;19.60;99.90;;;;;;5053155;28;20136;-77
2021/09/27 13:12:09;;;;;;;5.85;4.60;;;19.40;99.90;;;;;;5052462;28;20029;-76
2021/09/27 13:14:42;;;;;;;6.78;5.13;;;19.20;99.90;;;;;;5053117;28;20393;-76
2021/09/27 13:17:18;;;;;;;6.28;4.95;;;19.00;99.90;;;;;;5053157;28;20532;-76
2021/09/27 13:19:45;;;;;;;7.55;5.00;;;18.90;99.90;;;;;;5053069;28;20025;-76
2021/09/27 13:22:23;;;;;;;6.00;4.43;;;18.90;99.90;;;;;;5052836;28;20021;-75
2021/09/27 13:24:53;;;;;;;4.40;3.78;;;18.80;99.90;;;;;;5052309;28;20045;-75
2021/09/27 13:27:24;;;;;;;;;;;18.80;99.90;;;;;;5053313;28;20045;-75